Accueil
METAR-TAF:

METAR-TAF

Aéroports :

Aéroport de Pérouse-Sant'Egidio

Pérouse, Italie

latitude: 43-05N, longitude: 012-30E, altitude: 208 m

Observation

Le bulletin a été fait il y a 21 minutes, à 23:50 UTC
Vent 1 kt de direction variable
Température 21°C
Humidité 73%
Pression 1016 hPa
Visibilité 10 km ou plus

METAR: LIRZ 032350Z AUTO VRB01KT 9999 NCD 21/16 Q1016

Heure: 02:11 (00:11 UTC)

Prévision

Le bulletin a été fait il y a 1 heure et 11 minutes, à 23:00 UTC
Prévision valable du 04 à 00 UTC au 04 à 24 UTC
Vent 5 kt de direction variable
Visibilité 10 km ou plus
Nuages épars à une hauteur de 4000 ft
Evoluant progressivement
du 04 à 10 UTC au 04 à 12 UTC
Vent 12 kt de sud-ouest
Evoluant progressivement
du 04 à 17 UTC au 04 à 19 UTC
Vent 5 kt de direction variable

TAF: LIRZ 032300Z 0400/0424 VRB05KT 9999 SCT040 BECMG 0410/0412 23012KT BECMG 0417/0419 VRB05KT

Observations et prévisions météorologiques de plus de 4000 aéroports (messages METAR et TAF).

Les stations disponibles sont représentées par des disques jaunes et rouges sur la carte.

Passer la souris dessus pour voir le nom de la station.

Cliquer dessus pour voir les observations et prévisions météorologiques.

Pour changer de carte: cliquez sur les boutons verts avec une croix noire pour zoomer, sur le bouton vert avec un tiret pour effectuer un zoom arrière, ou sur les flèches vertes pour les cartes adjacentes.


METAR-TAF: